sensor_id;sensor_type;location;lat;lon;timestamp;P1;durP1;ratioP1;P2;durP2;ratioP2
15061;SDS011;7630;50.306;8.566;2022-09-09T00:00:32;3.00;;;1.50;;
15061;SDS011;7630;50.306;8.566;2022-09-09T00:04:37;2.87;;;1.47;;
15061;SDS011;7630;50.306;8.566;2022-09-09T00:13:02;1.40;;;1.17;;
15061;SDS011;7630;50.306;8.566;2022-09-09T00:17:04;2.50;;;1.10;;
15061;SDS011;7630;50.306;8.566;2022-09-09T00:21:08;2.27;;;1.60;;
15061;SDS011;7630;50.306;8.566;2022-09-09T00:25:14;6.93;;;1.97;;
15061;SDS011;7630;50.306;8.566;2022-09-09T00:29:23;5.20;;;1.10;;
15061;SDS011;7630;50.306;8.566;2022-09-09T00:33:25;2.47;;;2.17;;
15061;SDS011;7630;50.306;8.566;2022-09-09T00:37:27;3.23;;;1.27;;
15061;SDS011;7630;50.306;8.566;2022-09-09T00:46:03;3.77;;;1.10;;
15061;SDS011;7630;50.306;8.566;2022-09-09T00:54:33;2.43;;;1.10;;
15061;SDS011;7630;50.306;8.566;2022-09-09T00:58:33;4.03;;;1.40;;
15061;SDS011;7630;50.306;8.566;2022-09-09T01:06:56;1.63;;;1.43;;
15061;SDS011;7630;50.306;8.566;2022-09-09T01:11:02;3.53;;;1.73;;
15061;SDS011;7630;50.306;8.566;2022-09-09T01:15:12;3.90;;;1.50;;
15061;SDS011;7630;50.306;8.566;2022-09-09T01:19:45;1.77;;;1.20;;
15061;SDS011;7630;50.306;8.566;2022-09-09T01:27:50;5.17;;;1.60;;
15061;SDS011;7630;50.306;8.566;2022-09-09T01:35:59;4.40;;;1.57;;
15061;SDS011;7630;50.306;8.566;2022-09-09T01:40:03;5.87;;;2.00;;
15061;SDS011;7630;50.306;8.566;2022-09-09T01:44:05;5.23;;;1.80;;
15061;SDS011;7630;50.306;8.566;2022-09-09T01:48:09;5.30;;;1.70;;
15061;SDS011;7630;50.306;8.566;2022-09-09T01:52:10;4.90;;;1.87;;
15061;SDS011;7630;50.306;8.566;2022-09-09T02:00:25;4.30;;;1.87;;
15061;SDS011;7630;50.306;8.566;2022-09-09T02:04:37;3.93;;;1.80;;
15061;SDS011;7630;50.306;8.566;2022-09-09T02:08:50;2.20;;;1.73;;
15061;SDS011;7630;50.306;8.566;2022-09-09T02:12:55;2.13;;;1.53;;
15061;SDS011;7630;50.306;8.566;2022-09-09T02:17:01;3.40;;;1.73;;
15061;SDS011;7630;50.306;8.566;2022-09-09T02:21:04;1.97;;;1.50;;
15061;SDS011;7630;50.306;8.566;2022-09-09T02:25:07;3.07;;;1.97;;
15061;SDS011;7630;50.306;8.566;2022-09-09T02:29:14;4.00;;;2.33;;
15061;SDS011;7630;50.306;8.566;2022-09-09T02:33:18;3.50;;;1.87;;
15061;SDS011;7630;50.306;8.566;2022-09-09T02:37:20;7.23;;;2.50;;
15061;SDS011;7630;50.306;8.566;2022-09-09T02:41:26;5.93;;;1.77;;
15061;SDS011;7630;50.306;8.566;2022-09-09T02:45:40;3.73;;;2.30;;
15061;SDS011;7630;50.306;8.566;2022-09-09T02:49:52;2.80;;;2.17;;
15061;SDS011;7630;50.306;8.566;2022-09-09T02:58:16;2.90;;;2.03;;
15061;SDS011;7630;50.306;8.566;2022-09-09T03:02:18;3.87;;;2.23;;
15061;SDS011;7630;50.306;8.566;2022-09-09T03:06:20;4.60;;;2.10;;
15061;SDS011;7630;50.306;8.566;2022-09-09T03:10:21;4.67;;;1.77;;
15061;SDS011;7630;50.306;8.566;2022-09-09T03:14:22;4.43;;;2.13;;
15061;SDS011;7630;50.306;8.566;2022-09-09T03:18:25;5.37;;;2.30;;
15061;SDS011;7630;50.306;8.566;2022-09-09T03:22:27;3.70;;;2.30;;
15061;SDS011;7630;50.306;8.566;2022-09-09T03:26:33;5.57;;;2.20;;
15061;SDS011;7630;50.306;8.566;2022-09-09T03:30:32;3.47;;;2.43;;
15061;SDS011;7630;50.306;8.566;2022-09-09T03:34:33;4.13;;;2.20;;
15061;SDS011;7630;50.306;8.566;2022-09-09T03:38:34;3.30;;;2.60;;
15061;SDS011;7630;50.306;8.566;2022-09-09T03:42:36;7.10;;;4.50;;
15061;SDS011;7630;50.306;8.566;2022-09-09T03:46:37;4.17;;;2.33;;
15061;SDS011;7630;50.306;8.566;2022-09-09T03:50:38;4.43;;;2.73;;
15061;SDS011;7630;50.306;8.566;2022-09-09T03:54:39;7.80;;;2.90;;
15061;SDS011;7630;50.306;8.566;2022-09-09T03:58:42;4.83;;;2.60;;
15061;SDS011;7630;50.306;8.566;2022-09-09T04:02:43;2.67;;;2.37;;
15061;SDS011;7630;50.306;8.566;2022-09-09T04:06:44;2.27;;;1.90;;
15061;SDS011;7630;50.306;8.566;2022-09-09T04:10:46;4.70;;;2.20;;
15061;SDS011;7630;50.306;8.566;2022-09-09T04:14:48;7.63;;;2.93;;
15061;SDS011;7630;50.306;8.566;2022-09-09T04:18:49;4.87;;;2.70;;
15061;SDS011;7630;50.306;8.566;2022-09-09T04:22:50;4.73;;;3.23;;
15061;SDS011;7630;50.306;8.566;2022-09-09T04:26:51;4.17;;;3.20;;
15061;SDS011;7630;50.306;8.566;2022-09-09T04:30:53;5.23;;;3.43;;
15061;SDS011;7630;50.306;8.566;2022-09-09T04:34:54;4.87;;;4.00;;
15061;SDS011;7630;50.306;8.566;2022-09-09T04:38:55;6.93;;;3.37;;
15061;SDS011;7630;50.306;8.566;2022-09-09T04:43:03;4.27;;;3.20;;
15061;SDS011;7630;50.306;8.566;2022-09-09T04:47:05;4.33;;;3.27;;
15061;SDS011;7630;50.306;8.566;2022-09-09T04:51:08;5.57;;;3.77;;
15061;SDS011;7630;50.306;8.566;2022-09-09T04:55:11;6.63;;;3.70;;
15061;SDS011;7630;50.306;8.566;2022-09-09T04:59:13;4.30;;;3.90;;
15061;SDS011;7630;50.306;8.566;2022-09-09T05:03:14;4.97;;;3.00;;
15061;SDS011;7630;50.306;8.566;2022-09-09T05:07:15;3.67;;;3.33;;
15061;SDS011;7630;50.306;8.566;2022-09-09T05:11:20;3.50;;;3.20;;
15061;SDS011;7630;50.306;8.566;2022-09-09T05:15:24;4.13;;;3.60;;
15061;SDS011;7630;50.306;8.566;2022-09-09T05:19:26;3.90;;;3.43;;
15061;SDS011;7630;50.306;8.566;2022-09-09T05:23:27;3.90;;;3.50;;
15061;SDS011;7630;50.306;8.566;2022-09-09T05:27:28;7.43;;;4.30;;
15061;SDS011;7630;50.306;8.566;2022-09-09T05:31:31;4.33;;;3.40;;
15061;SDS011;7630;50.306;8.566;2022-09-09T05:35:34;6.30;;;4.00;;
15061;SDS011;7630;50.306;8.566;2022-09-09T05:39:35;5.77;;;3.77;;
15061;SDS011;7630;50.306;8.566;2022-09-09T05:43:39;3.30;;;3.00;;
15061;SDS011;7630;50.306;8.566;2022-09-09T05:47:40;3.23;;;3.03;;
15061;SDS011;7630;50.306;8.566;2022-09-09T05:51:46;5.53;;;2.87;;
15061;SDS011;7630;50.306;8.566;2022-09-09T05:55:48;3.40;;;2.97;;
15061;SDS011;7630;50.306;8.566;2022-09-09T05:59:49;4.23;;;2.93;;
15061;SDS011;7630;50.306;8.566;2022-09-09T06:03:53;8.47;;;3.27;;
15061;SDS011;7630;50.306;8.566;2022-09-09T06:07:54;4.43;;;4.00;;
15061;SDS011;7630;50.306;8.566;2022-09-09T06:11:55;6.23;;;3.73;;
15061;SDS011;7630;50.306;8.566;2022-09-09T06:15:58;4.17;;;3.73;;
15061;SDS011;7630;50.306;8.566;2022-09-09T06:20:00;16.23;;;3.93;;
15061;SDS011;7630;50.306;8.566;2022-09-09T06:24:01;6.93;;;3.77;;
15061;SDS011;7630;50.306;8.566;2022-09-09T06:28:03;6.43;;;3.70;;
15061;SDS011;7630;50.306;8.566;2022-09-09T06:32:05;7.07;;;3.70;;
15061;SDS011;7630;50.306;8.566;2022-09-09T06:36:13;7.70;;;3.77;;
15061;SDS011;7630;50.306;8.566;2022-09-09T06:40:15;7.37;;;2.93;;
15061;SDS011;7630;50.306;8.566;2022-09-09T06:44:18;5.50;;;3.20;;
15061;SDS011;7630;50.306;8.566;2022-09-09T06:48:19;4.43;;;3.07;;
15061;SDS011;7630;50.306;8.566;2022-09-09T06:52:20;4.73;;;2.63;;
15061;SDS011;7630;50.306;8.566;2022-09-09T07:00:29;6.83;;;2.50;;
15061;SDS011;7630;50.306;8.566;2022-09-09T07:04:33;3.77;;;3.20;;
15061;SDS011;7630;50.306;8.566;2022-09-09T07:08:34;4.50;;;3.20;;
15061;SDS011;7630;50.306;8.566;2022-09-09T07:12:37;4.60;;;2.67;;
15061;SDS011;7630;50.306;8.566;2022-09-09T07:16:38;4.73;;;2.40;;
15061;SDS011;7630;50.306;8.566;2022-09-09T07:20:40;4.47;;;3.13;;
15061;SDS011;7630;50.306;8.566;2022-09-09T07:24:42;5.60;;;3.87;;
15061;SDS011;7630;50.306;8.566;2022-09-09T07:28:44;10.67;;;3.97;;
15061;SDS011;7630;50.306;8.566;2022-09-09T07:32:46;5.07;;;3.53;;
15061;SDS011;7630;50.306;8.566;2022-09-09T07:36:47;4.13;;;3.70;;
15061;SDS011;7630;50.306;8.566;2022-09-09T07:40:49;4.47;;;4.07;;
15061;SDS011;7630;50.306;8.566;2022-09-09T07:44:50;4.30;;;3.90;;
15061;SDS011;7630;50.306;8.566;2022-09-09T07:48:54;4.87;;;4.37;;
15061;SDS011;7630;50.306;8.566;2022-09-09T07:52:56;7.90;;;4.90;;
15061;SDS011;7630;50.306;8.566;2022-09-09T07:56:58;5.70;;;3.63;;
15061;SDS011;7630;50.306;8.566;2022-09-09T08:01:05;5.53;;;3.53;;
15061;SDS011;7630;50.306;8.566;2022-09-09T08:05:12;5.83;;;3.80;;
15061;SDS011;7630;50.306;8.566;2022-09-09T08:09:13;9.77;;;4.07;;
15061;SDS011;7630;50.306;8.566;2022-09-09T08:13:18;8.93;;;3.93;;
15061;SDS011;7630;50.306;8.566;2022-09-09T08:17:19;8.27;;;3.63;;
15061;SDS011;7630;50.306;8.566;2022-09-09T08:21:24;7.53;;;5.53;;
15061;SDS011;7630;50.306;8.566;2022-09-09T08:25:28;5.53;;;3.47;;
15061;SDS011;7630;50.306;8.566;2022-09-09T08:29:29;4.57;;;2.73;;
15061;SDS011;7630;50.306;8.566;2022-09-09T08:33:32;8.73;;;3.33;;
15061;SDS011;7630;50.306;8.566;2022-09-09T08:37:34;5.13;;;2.67;;
15061;SDS011;7630;50.306;8.566;2022-09-09T08:46:11;4.00;;;3.27;;
15061;SDS011;7630;50.306;8.566;2022-09-09T08:50:28;5.17;;;2.90;;
15061;SDS011;7630;50.306;8.566;2022-09-09T08:54:33;6.67;;;3.07;;
15061;SDS011;7630;50.306;8.566;2022-09-09T08:58:46;6.10;;;3.60;;
15061;SDS011;7630;50.306;8.566;2022-09-09T09:02:56;4.57;;;3.43;;
15061;SDS011;7630;50.306;8.566;2022-09-09T09:11:18;5.00;;;2.60;;
15061;SDS011;7630;50.306;8.566;2022-09-09T09:15:30;3.30;;;3.00;;
15061;SDS011;7630;50.306;8.566;2022-09-09T09:19:30;3.63;;;3.07;;
15061;SDS011;7630;50.306;8.566;2022-09-09T09:23:36;5.03;;;2.67;;
15061;SDS011;7630;50.306;8.566;2022-09-09T09:27:43;3.63;;;2.50;;
15061;SDS011;7630;50.306;8.566;2022-09-09T09:32:02;4.77;;;3.33;;
15061;SDS011;7630;50.306;8.566;2022-09-09T09:36:04;6.70;;;3.47;;
15061;SDS011;7630;50.306;8.566;2022-09-09T09:40:08;6.83;;;3.43;;
15061;SDS011;7630;50.306;8.566;2022-09-09T09:48:28;6.80;;;3.10;;
15061;SDS011;7630;50.306;8.566;2022-09-09T09:52:30;5.03;;;2.47;;
15061;SDS011;7630;50.306;8.566;2022-09-09T09:56:36;9.20;;;3.80;;
15061;SDS011;7630;50.306;8.566;2022-09-09T10:00:38;5.80;;;2.83;;
15061;SDS011;7630;50.306;8.566;2022-09-09T10:04:43;4.47;;;2.57;;
15061;SDS011;7630;50.306;8.566;2022-09-09T10:08:48;5.67;;;2.30;;
15061;SDS011;7630;50.306;8.566;2022-09-09T10:12:53;3.27;;;2.27;;
15061;SDS011;7630;50.306;8.566;2022-09-09T10:42:14;2.57;;;1.60;;
15061;SDS011;7630;50.306;8.566;2022-09-09T10:59:22;2.77;;;1.30;;
15061;SDS011;7630;50.306;8.566;2022-09-09T11:03:29;4.63;;;2.27;;
15061;SDS011;7630;50.306;8.566;2022-09-09T11:11:41;1.60;;;1.10;;
15061;SDS011;7630;50.306;8.566;2022-09-09T11:15:52;3.70;;;1.40;;
15061;SDS011;7630;50.306;8.566;2022-09-09T11:19:52;2.57;;;1.73;;
15061;SDS011;7630;50.306;8.566;2022-09-09T11:23:56;2.50;;;1.57;;
15061;SDS011;7630;50.306;8.566;2022-09-09T11:41:03;6.63;;;1.50;;
15061;SDS011;7630;50.306;8.566;2022-09-09T11:45:15;1.40;;;1.00;;
15061;SDS011;7630;50.306;8.566;2022-09-09T11:49:26;3.63;;;1.87;;
15061;SDS011;7630;50.306;8.566;2022-09-09T11:53:27;4.33;;;1.53;;
15061;SDS011;7630;50.306;8.566;2022-09-09T11:57:33;2.40;;;1.47;;
15061;SDS011;7630;50.306;8.566;2022-09-09T12:01:37;4.10;;;1.63;;
15061;SDS011;7630;50.306;8.566;2022-09-09T12:05:41;1.47;;;1.00;;
15061;SDS011;7630;50.306;8.566;2022-09-09T12:09:49;1.43;;;1.10;;
15061;SDS011;7630;50.306;8.566;2022-09-09T12:14:19;2.90;;;1.23;;
15061;SDS011;7630;50.306;8.566;2022-09-09T12:27:07;3.03;;;1.20;;
15061;SDS011;7630;50.306;8.566;2022-09-09T12:35:35;3.40;;;1.10;;
15061;SDS011;7630;50.306;8.566;2022-09-09T12:39:44;2.37;;;1.60;;
15061;SDS011;7630;50.306;8.566;2022-09-09T12:43:47;3.63;;;1.63;;
15061;SDS011;7630;50.306;8.566;2022-09-09T12:48:09;3.40;;;1.70;;
15061;SDS011;7630;50.306;8.566;2022-09-09T12:52:19;4.37;;;1.70;;
15061;SDS011;7630;50.306;8.566;2022-09-09T12:56:32;3.00;;;1.50;;
15061;SDS011;7630;50.306;8.566;2022-09-09T13:00:34;2.93;;;1.30;;
15061;SDS011;7630;50.306;8.566;2022-09-09T13:04:35;6.70;;;1.70;;
15061;SDS011;7630;50.306;8.566;2022-09-09T13:08:36;1.50;;;1.40;;
15061;SDS011;7630;50.306;8.566;2022-09-09T13:12:39;2.87;;;1.27;;
15061;SDS011;7630;50.306;8.566;2022-09-09T13:16:43;3.40;;;1.90;;
15061;SDS011;7630;50.306;8.566;2022-09-09T13:20:47;4.17;;;1.20;;
15061;SDS011;7630;50.306;8.566;2022-09-09T13:24:58;4.03;;;2.03;;
15061;SDS011;7630;50.306;8.566;2022-09-09T13:28:54;2.60;;;1.30;;
15061;SDS011;7630;50.306;8.566;2022-09-09T13:37:31;6.93;;;2.20;;
15061;SDS011;7630;50.306;8.566;2022-09-09T13:45:39;2.80;;;0.63;;
15061;SDS011;7630;50.306;8.566;2022-09-09T13:49:40;1.97;;;0.87;;
15061;SDS011;7630;50.306;8.566;2022-09-09T13:53:41;2.60;;;1.07;;
15061;SDS011;7630;50.306;8.566;2022-09-09T13:58:02;1.60;;;0.73;;
15061;SDS011;7630;50.306;8.566;2022-09-09T14:02:06;1.17;;;0.60;;
15061;SDS011;7630;50.306;8.566;2022-09-09T14:06:08;2.17;;;0.60;;
15061;SDS011;7630;50.306;8.566;2022-09-09T14:10:11;3.23;;;1.10;;
15061;SDS011;7630;50.306;8.566;2022-09-09T14:14:12;2.47;;;0.83;;
15061;SDS011;7630;50.306;8.566;2022-09-09T14:18:14;2.93;;;1.20;;
15061;SDS011;7630;50.306;8.566;2022-09-09T14:22:15;1.67;;;1.10;;
15061;SDS011;7630;50.306;8.566;2022-09-09T14:26:16;3.77;;;1.17;;
15061;SDS011;7630;50.306;8.566;2022-09-09T14:30:19;4.53;;;1.40;;
15061;SDS011;7630;50.306;8.566;2022-09-09T14:34:20;4.20;;;1.00;;
15061;SDS011;7630;50.306;8.566;2022-09-09T14:38:21;2.97;;;1.20;;
15061;SDS011;7630;50.306;8.566;2022-09-09T14:42:22;4.37;;;1.20;;
15061;SDS011;7630;50.306;8.566;2022-09-09T14:46:24;3.80;;;1.30;;
15061;SDS011;7630;50.306;8.566;2022-09-09T14:50:26;3.00;;;1.13;;
15061;SDS011;7630;50.306;8.566;2022-09-09T14:54:27;1.00;;;0.90;;
15061;SDS011;7630;50.306;8.566;2022-09-09T14:58:30;7.40;;;1.53;;
15061;SDS011;7630;50.306;8.566;2022-09-09T15:02:33;5.60;;;1.10;;
15061;SDS011;7630;50.306;8.566;2022-09-09T15:06:35;4.43;;;1.30;;
15061;SDS011;7630;50.306;8.566;2022-09-09T15:10:39;6.40;;;2.10;;
15061;SDS011;7630;50.306;8.566;2022-09-09T15:14:40;2.00;;;1.10;;
15061;SDS011;7630;50.306;8.566;2022-09-09T15:18:42;6.20;;;1.20;;
15061;SDS011;7630;50.306;8.566;2022-09-09T15:22:45;3.03;;;0.70;;
15061;SDS011;7630;50.306;8.566;2022-09-09T15:26:46;2.20;;;1.10;;
15061;SDS011;7630;50.306;8.566;2022-09-09T15:30:51;4.43;;;1.13;;
15061;SDS011;7630;50.306;8.566;2022-09-09T15:34:55;2.50;;;0.87;;
15061;SDS011;7630;50.306;8.566;2022-09-09T15:38:56;2.17;;;1.30;;
15061;SDS011;7630;50.306;8.566;2022-09-09T15:42:58;1.63;;;1.00;;
15061;SDS011;7630;50.306;8.566;2022-09-09T15:46:59;4.87;;;1.33;;
15061;SDS011;7630;50.306;8.566;2022-09-09T15:51:03;5.13;;;1.63;;
15061;SDS011;7630;50.306;8.566;2022-09-09T15:55:07;1.40;;;1.13;;
15061;SDS011;7630;50.306;8.566;2022-09-09T15:59:11;3.03;;;1.00;;
15061;SDS011;7630;50.306;8.566;2022-09-09T16:03:12;0.90;;;0.77;;
15061;SDS011;7630;50.306;8.566;2022-09-09T16:07:13;5.53;;;1.40;;
15061;SDS011;7630;50.306;8.566;2022-09-09T16:11:15;2.47;;;1.43;;
15061;SDS011;7630;50.306;8.566;2022-09-09T16:15:20;4.00;;;1.27;;
15061;SDS011;7630;50.306;8.566;2022-09-09T16:19:23;3.80;;;1.40;;
15061;SDS011;7630;50.306;8.566;2022-09-09T16:23:24;2.77;;;1.30;;
15061;SDS011;7630;50.306;8.566;2022-09-09T16:27:25;2.50;;;1.10;;
15061;SDS011;7630;50.306;8.566;2022-09-09T16:31:27;2.87;;;1.20;;
15061;SDS011;7630;50.306;8.566;2022-09-09T16:35:29;3.57;;;1.67;;
15061;SDS011;7630;50.306;8.566;2022-09-09T16:39:31;5.17;;;3.30;;
15061;SDS011;7630;50.306;8.566;2022-09-09T16:43:33;4.30;;;2.10;;
15061;SDS011;7630;50.306;8.566;2022-09-09T16:47:34;5.80;;;1.87;;
15061;SDS011;7630;50.306;8.566;2022-09-09T16:51:37;4.13;;;1.60;;
15061;SDS011;7630;50.306;8.566;2022-09-09T16:55:41;5.23;;;3.07;;
15061;SDS011;7630;50.306;8.566;2022-09-09T16:59:43;3.10;;;1.77;;
15061;SDS011;7630;50.306;8.566;2022-09-09T17:03:44;3.33;;;1.60;;
15061;SDS011;7630;50.306;8.566;2022-09-09T17:07:45;2.87;;;1.50;;
15061;SDS011;7630;50.306;8.566;2022-09-09T17:11:47;2.60;;;1.73;;
15061;SDS011;7630;50.306;8.566;2022-09-09T17:15:50;3.30;;;1.40;;
15061;SDS011;7630;50.306;8.566;2022-09-09T17:19:52;2.50;;;1.47;;
15061;SDS011;7630;50.306;8.566;2022-09-09T17:23:54;1.13;;;1.00;;
15061;SDS011;7630;50.306;8.566;2022-09-09T17:27:55;6.70;;;1.70;;
15061;SDS011;7630;50.306;8.566;2022-09-09T17:31:58;2.30;;;2.00;;
15061;SDS011;7630;50.306;8.566;2022-09-09T17:35:59;3.10;;;1.90;;
15061;SDS011;7630;50.306;8.566;2022-09-09T17:40:02;4.20;;;1.43;;
15061;SDS011;7630;50.306;8.566;2022-09-09T17:44:04;3.23;;;1.43;;
15061;SDS011;7630;50.306;8.566;2022-09-09T17:48:08;2.73;;;1.80;;
15061;SDS011;7630;50.306;8.566;2022-09-09T17:52:11;1.93;;;1.17;;
15061;SDS011;7630;50.306;8.566;2022-09-09T17:56:13;4.03;;;1.50;;
15061;SDS011;7630;50.306;8.566;2022-09-09T18:00:16;3.47;;;1.50;;
15061;SDS011;7630;50.306;8.566;2022-09-09T18:04:18;3.50;;;1.20;;
15061;SDS011;7630;50.306;8.566;2022-09-09T18:08:20;1.73;;;1.33;;
15061;SDS011;7630;50.306;8.566;2022-09-09T18:12:21;3.57;;;1.37;;
15061;SDS011;7630;50.306;8.566;2022-09-09T18:16:23;3.53;;;1.27;;
15061;SDS011;7630;50.306;8.566;2022-09-09T18:20:25;2.77;;;1.40;;
15061;SDS011;7630;50.306;8.566;2022-09-09T18:24:27;2.93;;;1.23;;
15061;SDS011;7630;50.306;8.566;2022-09-09T18:28:28;2.60;;;1.30;;
15061;SDS011;7630;50.306;8.566;2022-09-09T18:32:29;1.70;;;1.37;;
15061;SDS011;7630;50.306;8.566;2022-09-09T18:36:35;2.27;;;1.23;;
15061;SDS011;7630;50.306;8.566;2022-09-09T18:40:35;3.02;;;1.92;;
15061;SDS011;7630;50.306;8.566;2022-09-09T18:44:37;2.63;;;1.63;;
15061;SDS011;7630;50.306;8.566;2022-09-09T18:48:39;3.10;;;1.60;;
15061;SDS011;7630;50.306;8.566;2022-09-09T18:52:40;2.23;;;1.00;;
15061;SDS011;7630;50.306;8.566;2022-09-09T18:56:42;2.83;;;1.95;;
15061;SDS011;7630;50.306;8.566;2022-09-09T19:00:45;3.05;;;1.12;;
15061;SDS011;7630;50.306;8.566;2022-09-09T19:04:46;2.50;;;0.70;;
15061;SDS011;7630;50.306;8.566;2022-09-09T19:08:50;2.37;;;0.90;;
15061;SDS011;7630;50.306;8.566;2022-09-09T19:12:53;0.73;;;0.67;;
15061;SDS011;7630;50.306;8.566;2022-09-09T19:16:55;1.77;;;0.87;;
15061;SDS011;7630;50.306;8.566;2022-09-09T19:20:56;2.37;;;0.87;;
15061;SDS011;7630;50.306;8.566;2022-09-09T19:25:00;0.97;;;0.70;;
15061;SDS011;7630;50.306;8.566;2022-09-09T19:29:03;2.50;;;1.23;;
15061;SDS011;7630;50.306;8.566;2022-09-09T19:33:04;1.87;;;1.00;;
15061;SDS011;7630;50.306;8.566;2022-09-09T19:37:05;1.70;;;0.80;;
15061;SDS011;7630;50.306;8.566;2022-09-09T19:41:07;1.93;;;1.23;;
15061;SDS011;7630;50.306;8.566;2022-09-09T19:45:10;1.77;;;1.20;;
15061;SDS011;7630;50.306;8.566;2022-09-09T19:49:11;1.70;;;1.10;;
15061;SDS011;7630;50.306;8.566;2022-09-09T19:53:15;4.40;;;1.50;;
15061;SDS011;7630;50.306;8.566;2022-09-09T19:57:18;2.43;;;1.00;;
15061;SDS011;7630;50.306;8.566;2022-09-09T20:01:21;1.27;;;0.80;;
15061;SDS011;7630;50.306;8.566;2022-09-09T20:05:24;1.30;;;1.17;;
15061;SDS011;7630;50.306;8.566;2022-09-09T20:09:25;2.23;;;1.20;;
15061;SDS011;7630;50.306;8.566;2022-09-09T20:13:28;1.80;;;0.80;;
15061;SDS011;7630;50.306;8.566;2022-09-09T20:17:31;0.67;;;0.67;;
15061;SDS011;7630;50.306;8.566;2022-09-09T20:21:33;1.33;;;0.90;;
15061;SDS011;7630;50.306;8.566;2022-09-09T20:25:38;0.77;;;0.60;;
15061;SDS011;7630;50.306;8.566;2022-09-09T20:29:39;1.17;;;0.70;;
15061;SDS011;7630;50.306;8.566;2022-09-09T20:33:41;1.30;;;0.73;;
15061;SDS011;7630;50.306;8.566;2022-09-09T20:37:43;1.50;;;0.90;;
15061;SDS011;7630;50.306;8.566;2022-09-09T20:41:46;0.50;;;0.50;;
15061;SDS011;7630;50.306;8.566;2022-09-09T20:45:48;2.10;;;0.70;;
15061;SDS011;7630;50.306;8.566;2022-09-09T20:49:49;1.83;;;0.80;;
15061;SDS011;7630;50.306;8.566;2022-09-09T20:54:01;1.03;;;0.97;;
15061;SDS011;7630;50.306;8.566;2022-09-09T20:58:04;1.77;;;1.00;;
15061;SDS011;7630;50.306;8.566;2022-09-09T21:02:06;3.63;;;1.30;;
15061;SDS011;7630;50.306;8.566;2022-09-09T21:06:07;1.50;;;1.07;;
15061;SDS011;7630;50.306;8.566;2022-09-09T21:10:09;1.77;;;1.20;;
15061;SDS011;7630;50.306;8.566;2022-09-09T21:14:13;1.03;;;1.00;;
15061;SDS011;7630;50.306;8.566;2022-09-09T21:18:15;2.47;;;1.07;;
15061;SDS011;7630;50.306;8.566;2022-09-09T21:22:17;1.77;;;1.13;;
15061;SDS011;7630;50.306;8.566;2022-09-09T21:26:18;1.10;;;1.10;;
15061;SDS011;7630;50.306;8.566;2022-09-09T21:30:20;2.60;;;1.10;;
15061;SDS011;7630;50.306;8.566;2022-09-09T21:34:23;2.00;;;1.60;;
15061;SDS011;7630;50.306;8.566;2022-09-09T21:38:24;2.17;;;1.40;;
15061;SDS011;7630;50.306;8.566;2022-09-09T21:42:25;4.63;;;2.30;;
15061;SDS011;7630;50.306;8.566;2022-09-09T21:46:26;1.60;;;1.50;;
15061;SDS011;7630;50.306;8.566;2022-09-09T21:50:27;2.27;;;1.97;;
15061;SDS011;7630;50.306;8.566;2022-09-09T21:54:29;2.50;;;1.80;;
15061;SDS011;7630;50.306;8.566;2022-09-09T21:58:31;7.30;;;2.00;;
15061;SDS011;7630;50.306;8.566;2022-09-09T22:02:34;1.43;;;1.33;;
15061;SDS011;7630;50.306;8.566;2022-09-09T22:06:36;3.13;;;1.90;;
15061;SDS011;7630;50.306;8.566;2022-09-09T22:10:43;2.20;;;2.00;;
15061;SDS011;7630;50.306;8.566;2022-09-09T22:14:41;3.87;;;1.93;;
15061;SDS011;7630;50.306;8.566;2022-09-09T22:18:42;3.07;;;1.87;;
15061;SDS011;7630;50.306;8.566;2022-09-09T22:22:43;4.60;;;2.03;;
15061;SDS011;7630;50.306;8.566;2022-09-09T22:26:44;2.47;;;1.60;;
15061;SDS011;7630;50.306;8.566;2022-09-09T22:30:46;3.30;;;2.30;;
15061;SDS011;7630;50.306;8.566;2022-09-09T22:34:48;2.93;;;1.83;;
15061;SDS011;7630;50.306;8.566;2022-09-09T22:38:50;3.85;;;1.65;;
15061;SDS011;7630;50.306;8.566;2022-09-09T22:42:52;3.57;;;2.30;;
15061;SDS011;7630;50.306;8.566;2022-09-09T22:46:53;3.00;;;1.50;;
15061;SDS011;7630;50.306;8.566;2022-09-09T22:50:59;4.33;;;2.43;;
15061;SDS011;7630;50.306;8.566;2022-09-09T22:55:03;3.97;;;2.00;;
15061;SDS011;7630;50.306;8.566;2022-09-09T22:59:04;3.43;;;2.43;;
15061;SDS011;7630;50.306;8.566;2022-09-09T23:03:06;3.10;;;2.30;;
15061;SDS011;7630;50.306;8.566;2022-09-09T23:07:07;2.53;;;1.70;;
15061;SDS011;7630;50.306;8.566;2022-09-09T23:11:09;6.47;;;2.77;;
15061;SDS011;7630;50.306;8.566;2022-09-09T23:15:11;2.72;;;2.00;;
15061;SDS011;7630;50.306;8.566;2022-09-09T23:19:13;2.90;;;2.12;;
15061;SDS011;7630;50.306;8.566;2022-09-09T23:23:16;5.47;;;2.35;;
15061;SDS011;7630;50.306;8.566;2022-09-09T23:27:17;4.60;;;2.03;;
15061;SDS011;7630;50.306;8.566;2022-09-09T23:31:19;5.60;;;2.33;;
15061;SDS011;7630;50.306;8.566;2022-09-09T23:35:22;3.43;;;2.37;;
15061;SDS011;7630;50.306;8.566;2022-09-09T23:39:23;2.03;;;1.90;;
15061;SDS011;7630;50.306;8.566;2022-09-09T23:43:24;2.20;;;1.97;;
15061;SDS011;7630;50.306;8.566;2022-09-09T23:47:26;2.45;;;1.72;;
15061;SDS011;7630;50.306;8.566;2022-09-09T23:51:30;1.87;;;1.67;;
15061;SDS011;7630;50.306;8.566;2022-09-09T23:55:31;2.10;;;1.90;;
15061;SDS011;7630;50.306;8.566;2022-09-09T23:59:33;2.90;;;2.00;;
